createdAt,value
2023-03-26T00:01:19.305Z,81.80
2023-03-26T00:03:47.145Z,82.31
2023-03-26T00:06:17.110Z,81.56
2023-03-26T00:08:45.810Z,81.84
2023-03-26T00:11:14.947Z,81.41
2023-03-26T00:13:43.931Z,82.36
2023-03-26T00:16:16.498Z,82.52
2023-03-26T00:18:51.613Z,82.53
2023-03-26T00:21:21.360Z,82.82
2023-03-26T00:23:49.185Z,82.70
2023-03-26T00:26:17.672Z,82.43
2023-03-26T00:28:44.685Z,82.25
2023-03-26T00:31:14.165Z,82.59
2023-03-26T00:33:41.892Z,82.08
2023-03-26T00:36:11.974Z,82.21
2023-03-26T00:38:39.422Z,82.57
2023-03-26T00:41:17.727Z,82.58
2023-03-26T00:43:49.218Z,82.64
2023-03-26T00:46:17.667Z,82.49
2023-03-26T00:48:46.227Z,81.96
2023-03-26T00:51:15.946Z,82.19
2023-03-26T00:53:45.271Z,81.99
2023-03-26T00:56:12.920Z,81.88
2023-03-26T00:58:39.935Z,82.60
2023-03-26T01:01:10.353Z,82.49
2023-03-26T01:03:38.629Z,82.05
2023-03-26T01:06:12.830Z,82.54
2023-03-26T01:08:39.482Z,82.84
2023-03-26T01:11:16.168Z,82.67
2023-03-26T01:13:48.002Z,83.28
2023-03-26T01:16:22.660Z,82.81
2023-03-26T01:18:50.007Z,82.68
2023-03-26T01:21:30.441Z,82.97
2023-03-26T01:24:08.735Z,82.66
2023-03-26T01:26:50.684Z,82.17
2023-03-26T01:29:23.754Z,82.32
2023-03-26T01:32:13.558Z,82.71
2023-03-26T01:35:13.120Z,82.62
2023-03-26T01:38:02.547Z,82.89
2023-03-26T01:40:42.889Z,82.81
2023-03-26T01:43:20.332Z,82.10
2023-03-26T01:45:49.717Z,82.06
2023-03-26T01:48:17.156Z,82.17
2023-03-26T01:50:44.620Z,82.97
2023-03-26T01:53:14.225Z,82.45
2023-03-26T01:56:22.534Z,82.45
2023-03-26T01:59:13.835Z,82.23
2023-03-26T02:02:04.901Z,82.24
2023-03-26T02:04:40.510Z,82.71
2023-03-26T02:07:14.814Z,82.55
2023-03-26T02:09:49.918Z,82.14
2023-03-26T02:12:19.312Z,81.74
2023-03-26T02:14:46.572Z,82.32
2023-03-26T02:17:13.397Z,82.85
2023-03-26T02:19:43.494Z,82.38
2023-03-26T02:22:15.850Z,82.55
2023-03-26T02:24:45.024Z,82.48
2023-03-26T02:27:12.392Z,82.03
2023-03-26T02:29:40.963Z,82.43
2023-03-26T02:32:13.277Z,82.88
2023-03-26T02:34:41.199Z,82.22
2023-03-26T02:37:09.210Z,81.96
2023-03-26T02:39:37.944Z,82.00
2023-03-26T02:42:12.864Z,82.36
2023-03-26T02:44:47.500Z,81.94
2023-03-26T02:47:20.060Z,81.66
2023-03-26T02:49:52.611Z,81.79
2023-03-26T02:52:25.644Z,81.81
2023-03-26T02:54:55.443Z,82.10
2023-03-26T02:57:24.788Z,83.44
2023-03-26T03:00:12.681Z,83.64
2023-03-26T03:02:48.009Z,83.17
2023-03-26T03:05:31.680Z,83.27
2023-03-26T03:08:14.597Z,83.77
2023-03-26T03:11:02.770Z,83.61
2023-03-26T03:13:58.882Z,83.17
2023-03-26T03:16:27.630Z,82.58
2023-03-26T03:18:58.058Z,81.99
2023-03-26T03:21:36.892Z,81.93
2023-03-26T03:24:03.871Z,81.72
2023-03-26T03:26:36.491Z,81.36
2023-03-26T03:29:32.702Z,81.97
2023-03-26T03:32:16.094Z,82.18
2023-03-26T03:34:46.452Z,82.09
2023-03-26T03:37:13.188Z,81.65
2023-03-26T03:39:49.176Z,82.06
2023-03-26T03:42:20.140Z,82.21
2023-03-26T03:44:49.152Z,81.48
2023-03-26T03:47:34.418Z,81.11
2023-03-26T03:50:01.410Z,81.31
2023-03-26T03:52:30.369Z,81.54
2023-03-26T03:55:00.744Z,81.68
2023-03-26T03:57:40.524Z,81.92
2023-03-26T04:00:13.083Z,81.67
2023-03-26T04:02:42.993Z,81.94
2023-03-26T04:05:11.767Z,81.87
2023-03-26T04:07:45.305Z,81.17
2023-03-26T04:10:27.058Z,81.49
2023-03-26T04:13:29.263Z,82.58
2023-03-26T04:16:26.124Z,82.29
2023-03-26T04:18:52.874Z,82.06
2023-03-26T04:21:20.069Z,82.33
2023-03-26T04:23:47.411Z,82.34
2023-03-26T04:26:43.257Z,81.99
2023-03-26T04:29:18.261Z,82.36
2023-03-26T04:31:47.199Z,82.92
2023-03-26T04:34:24.176Z,81.70
2023-03-26T04:37:09.521Z,81.17
2023-03-26T04:39:45.009Z,81.60
2023-03-26T04:42:30.370Z,82.63
2023-03-26T04:45:22.705Z,82.19
2023-03-26T04:47:55.687Z,82.04
2023-03-26T04:50:22.576Z,81.58
2023-03-26T04:52:49.971Z,81.49
2023-03-26T04:55:25.196Z,81.09
2023-03-26T04:58:05.556Z,80.84
2023-03-26T05:00:56.070Z,81.03
2023-03-26T05:03:23.150Z,81.52
2023-03-26T05:05:49.953Z,81.28
2023-03-26T05:08:16.780Z,81.00
2023-03-26T05:10:43.576Z,80.85
2023-03-26T05:13:19.387Z,80.92
2023-03-26T05:15:50.627Z,81.74
2023-03-26T05:18:37.109Z,81.32
2023-03-26T05:21:05.160Z,82.09
2023-03-26T05:23:32.943Z,82.21
2023-03-26T05:26:11.528Z,82.24
2023-03-26T05:28:38.329Z,82.49
2023-03-26T05:31:21.370Z,82.21
2023-03-26T05:33:50.558Z,81.73
2023-03-26T05:36:17.479Z,81.18
2023-03-26T05:38:49.735Z,80.91
2023-03-26T05:41:35.417Z,80.60
2023-03-26T05:44:02.246Z,80.46
2023-03-26T05:46:30.731Z,80.36
2023-03-26T05:48:58.395Z,80.87
2023-03-26T05:51:25.423Z,80.51
2023-03-26T05:54:18.210Z,80.65
2023-03-26T05:57:03.618Z,80.66
2023-03-26T05:59:48.904Z,81.04
2023-03-26T06:02:34.916Z,81.02
2023-03-26T06:05:22.026Z,80.90
2023-03-26T06:07:58.620Z,81.14
2023-03-26T06:10:31.781Z,80.65
2023-03-26T06:12:58.711Z,80.87
2023-03-26T06:15:25.421Z,81.58
2023-03-26T06:18:00.480Z,81.25
2023-03-26T06:20:55.906Z,81.00
2023-03-26T06:23:52.576Z,81.09
2023-03-26T06:26:48.709Z,81.49
2023-03-26T06:29:33.761Z,81.65
2023-03-26T06:32:19.522Z,82.06
2023-03-26T06:35:13.142Z,82.23
2023-03-26T06:37:40.573Z,81.74
2023-03-26T06:40:20.760Z,81.02
2023-03-26T06:43:10.883Z,80.95
2023-03-26T06:45:58.745Z,80.81
2023-03-26T06:48:42.082Z,81.06
2023-03-26T06:51:32.092Z,81.18
2023-03-26T06:54:07.731Z,80.88
2023-03-26T06:56:51.329Z,80.74
2023-03-26T06:59:36.311Z,80.67
2023-03-26T07:02:21.507Z,80.98
2023-03-26T07:05:07.070Z,80.55
2023-03-26T07:07:52.105Z,80.19
2023-03-26T07:10:37.406Z,80.35
2023-03-26T07:13:22.560Z,80.40
2023-03-26T07:16:15.538Z,80.65
2023-03-26T07:19:08.460Z,80.91
2023-03-26T07:21:37.787Z,80.39
2023-03-26T07:24:15.006Z,80.09
2023-03-26T07:27:09.071Z,81.70
2023-03-26T07:29:47.911Z,79.94
2023-03-26T07:32:40.575Z,79.92
2023-03-26T07:35:36.945Z,80.15
2023-03-26T07:38:44.284Z,79.95
2023-03-26T07:42:14.683Z,80.01
2023-03-26T07:45:44.217Z,80.25
2023-03-26T07:48:27.672Z,80.77
2023-03-26T07:51:00.668Z,81.13
2023-03-26T07:53:46.201Z,80.89
2023-03-26T07:56:36.184Z,81.10
2023-03-26T07:59:23.324Z,81.49
2023-03-26T08:02:57.619Z,81.86
2023-03-26T08:05:51.046Z,81.76
2023-03-26T08:08:57.906Z,81.94
2023-03-26T08:11:52.364Z,81.82
2023-03-26T08:14:41.082Z,82.10
2023-03-26T08:17:16.808Z,82.35
2023-03-26T08:19:43.507Z,82.13
2023-03-26T08:22:36.786Z,81.18
2023-03-26T08:25:06.637Z,81.10
2023-03-26T08:27:41.433Z,81.19
2023-03-26T08:30:20.957Z,81.98
2023-03-26T08:32:58.632Z,80.87
2023-03-26T08:35:27.275Z,80.05
2023-03-26T08:37:54.463Z,79.06
2023-03-26T08:41:02.823Z,78.75
2023-03-26T08:44:06.950Z,79.57
2023-03-26T08:46:59.880Z,78.79
2023-03-26T08:49:48.558Z,78.32
2023-03-26T08:52:33.662Z,78.88
2023-03-26T08:55:27.776Z,77.11
2023-03-26T08:58:03.614Z,76.95
2023-03-26T09:00:36.018Z,77.46
2023-03-26T09:03:14.602Z,74.99
2023-03-26T09:05:50.245Z,74.99
2023-03-26T09:08:32.189Z,73.96
2023-03-26T09:11:16.456Z,73.92
2023-03-26T09:14:03.620Z,72.37
2023-03-26T09:16:53.485Z,72.18
2023-03-26T09:19:49.678Z,72.08
2023-03-26T09:22:51.949Z,70.75
2023-03-26T09:25:46.387Z,69.56
2023-03-26T09:28:36.524Z,70.49
2023-03-26T09:31:25.446Z,68.29
2023-03-26T09:34:23.239Z,66.25
2023-03-26T09:37:27.670Z,66.67
2023-03-26T09:40:10.066Z,66.15
2023-03-26T09:43:16.639Z,66.48
2023-03-26T09:46:08.477Z,66.69
2023-03-26T09:48:54.183Z,66.19
2023-03-26T09:51:21.224Z,66.43
2023-03-26T09:54:14.822Z,64.17
2023-03-26T09:57:18.184Z,60.77
2023-03-26T10:00:04.732Z,59.00
2023-03-26T10:03:01.043Z,58.08
2023-03-26T10:05:49.231Z,60.39
2023-03-26T10:08:32.090Z,59.34
2023-03-26T10:11:17.767Z,59.48
2023-03-26T10:14:12.391Z,62.30
2023-03-26T10:17:11.975Z,63.21
2023-03-26T10:20:00.790Z,65.03
2023-03-26T10:22:57.882Z,66.89
2023-03-26T10:25:51.067Z,69.97
2023-03-26T10:28:51.486Z,70.79
2023-03-26T10:31:36.865Z,73.41
2023-03-26T10:34:31.704Z,72.73
2023-03-26T10:37:04.573Z,73.35
2023-03-26T10:39:44.572Z,73.82
2023-03-26T10:42:20.712Z,74.18
2023-03-26T10:45:12.391Z,73.58
2023-03-26T10:48:11.025Z,72.12
2023-03-26T10:50:54.216Z,72.24
2023-03-26T10:53:34.763Z,71.91
2023-03-26T10:56:13.955Z,71.76
2023-03-26T10:58:48.783Z,71.43
2023-03-26T11:01:57.940Z,70.43
2023-03-26T11:04:30.665Z,69.75
2023-03-26T11:07:16.684Z,71.25
2023-03-26T11:09:53.963Z,67.99
2023-03-26T11:12:42.822Z,68.55
2023-03-26T11:15:24.750Z,66.13
2023-03-26T11:18:35.367Z,67.86
2023-03-26T11:21:21.070Z,66.55
2023-03-26T11:24:08.412Z,65.09
2023-03-26T11:27:15.416Z,65.41
2023-03-26T11:30:20.798Z,64.00
2023-03-26T11:32:59.529Z,63.19
2023-03-26T11:35:39.902Z,62.77
2023-03-26T11:38:27.218Z,62.44
2023-03-26T11:40:57.345Z,64.30
2023-03-26T11:43:50.408Z,63.20
2023-03-26T11:46:20.908Z,65.99
2023-03-26T11:49:02.989Z,66.20
2023-03-26T11:51:35.727Z,67.51
2023-03-26T11:54:04.262Z,68.06
2023-03-26T11:57:05.619Z,68.35
2023-03-26T11:59:56.439Z,68.25
2023-03-26T12:02:29.561Z,67.34
2023-03-26T12:05:22.150Z,66.48
2023-03-26T12:07:58.798Z,65.88
2023-03-26T12:10:44.235Z,62.48
2023-03-26T12:13:21.963Z,63.05
2023-03-26T12:15:49.808Z,62.01
2023-03-26T12:18:28.242Z,60.38
2023-03-26T12:21:09.231Z,60.07
2023-03-26T12:23:56.958Z,58.63
2023-03-26T12:26:35.811Z,59.59
2023-03-26T12:29:14.192Z,58.60
2023-03-26T12:32:06.401Z,57.81
2023-03-26T12:34:37.779Z,57.79
2023-03-26T12:37:06.984Z,51.66
2023-03-26T12:40:07.191Z,55.87
2023-03-26T12:44:51.242Z,59.36
2023-03-26T12:45:29.948Z,55.59
2023-03-26T12:48:03.980Z,54.20
2023-03-26T12:50:51.002Z,51.47
2023-03-26T12:53:27.473Z,49.00
2023-03-26T12:56:12.319Z,48.07
2023-03-26T12:58:55.114Z,47.67
2023-03-26T13:01:58.777Z,47.08
2023-03-26T13:04:30.150Z,47.56
2023-03-26T13:07:04.544Z,46.34
2023-03-26T13:09:56.660Z,48.37
2023-03-26T13:12:41.024Z,49.25
2023-03-26T13:15:35.644Z,47.61
2023-03-26T13:18:37.381Z,48.63
2023-03-26T13:21:09.499Z,49.39
2023-03-26T13:23:41.455Z,49.87
2023-03-26T13:26:18.281Z,50.91
2023-03-26T13:29:04.723Z,51.54
2023-03-26T13:31:50.749Z,51.72
2023-03-26T13:34:43.976Z,50.22
2023-03-26T13:37:28.460Z,48.82
2023-03-26T13:40:10.461Z,51.00
2023-03-26T13:43:06.667Z,51.74
2023-03-26T13:45:52.165Z,53.77
2023-03-26T13:48:44.524Z,55.54
2023-03-26T13:51:17.353Z,52.76
2023-03-26T13:53:51.955Z,54.01
2023-03-26T13:56:24.812Z,55.83
2023-03-26T13:59:01.574Z,56.30
2023-03-26T14:01:46.084Z,57.22
2023-03-26T14:04:26.114Z,53.76
2023-03-26T14:07:23.391Z,54.68
2023-03-26T14:10:00.056Z,55.68
2023-03-26T14:12:38.890Z,55.30
2023-03-26T14:15:19.340Z,54.63
2023-03-26T14:18:08.130Z,54.76
2023-03-26T14:20:53.290Z,55.47
2023-03-26T14:23:35.157Z,56.60
2023-03-26T14:26:10.888Z,57.18
2023-03-26T14:28:56.369Z,58.24
2023-03-26T14:31:52.965Z,58.95
2023-03-26T14:34:29.168Z,64.42
2023-03-26T14:37:27.821Z,67.98
2023-03-26T14:40:25.310Z,68.50
2023-03-26T14:43:04.485Z,69.62
2023-03-26T14:45:49.899Z,72.02
2023-03-26T14:48:48.778Z,72.94
2023-03-26T14:51:34.476Z,72.71
2023-03-26T14:54:18.933Z,73.45
2023-03-26T14:57:08.854Z,72.35
2023-03-26T15:00:15.955Z,72.55
2023-03-26T15:02:47.221Z,70.55
2023-03-26T15:05:46.759Z,70.71
2023-03-26T15:08:33.829Z,70.98
2023-03-26T15:11:24.694Z,71.36
2023-03-26T15:14:30.250Z,70.35
2023-03-26T15:17:29.077Z,70.83
2023-03-26T15:20:40.703Z,71.62
2023-03-26T15:23:29.124Z,71.60
2023-03-26T15:26:24.173Z,71.81
2023-03-26T15:29:09.801Z,71.59
2023-03-26T15:32:00.202Z,70.96
2023-03-26T15:34:48.851Z,71.05
2023-03-26T15:37:22.463Z,69.94
2023-03-26T15:40:07.994Z,70.12
2023-03-26T15:42:41.552Z,71.21
2023-03-26T15:45:26.951Z,71.18
2023-03-26T15:48:39.169Z,70.62
2023-03-26T15:51:23.386Z,70.77
2023-03-26T15:53:58.970Z,72.50
2023-03-26T15:56:44.222Z,72.18
2023-03-26T15:59:28.894Z,72.17
2023-03-26T16:02:09.954Z,72.84
2023-03-26T16:04:50.606Z,72.05
2023-03-26T16:07:21.891Z,72.25
2023-03-26T16:10:19.517Z,72.67
2023-03-26T16:13:14.420Z,72.04
2023-03-26T16:15:41.532Z,71.89
2023-03-26T16:18:19.318Z,71.78
2023-03-26T16:20:50.957Z,71.39
2023-03-26T16:23:32.185Z,71.33
2023-03-26T16:26:17.208Z,71.63
2023-03-26T16:28:47.118Z,71.18
2023-03-26T16:31:23.487Z,71.33
2023-03-26T16:34:11.248Z,72.99
2023-03-26T16:36:51.591Z,72.61
2023-03-26T16:39:23.151Z,72.85
2023-03-26T16:42:16.302Z,72.84
2023-03-26T16:45:01.004Z,71.46
2023-03-26T16:47:41.795Z,72.84
2023-03-26T16:50:39.658Z,72.17
2023-03-26T16:53:23.434Z,73.04
2023-03-26T16:56:26.323Z,73.21
2023-03-26T16:59:07.009Z,72.87
2023-03-26T17:01:43.703Z,72.38
2023-03-26T17:04:24.979Z,73.47
2023-03-26T17:07:17.919Z,73.08
2023-03-26T17:09:44.725Z,72.73
2023-03-26T17:12:30.078Z,73.13
2023-03-26T17:15:25.399Z,74.20
2023-03-26T17:18:26.331Z,74.91
2023-03-26T17:21:30.354Z,74.46
2023-03-26T17:24:43.813Z,73.95
2023-03-26T17:27:51.618Z,73.35
2023-03-26T17:30:24.950Z,72.60
2023-03-26T17:32:54.381Z,74.52
2023-03-26T17:35:36.905Z,73.87
2023-03-26T17:38:24.338Z,76.12
2023-03-26T17:40:58.474Z,74.63
2023-03-26T17:43:35.388Z,75.50
2023-03-26T17:46:37.596Z,75.82
2023-03-26T17:49:16.476Z,76.10
2023-03-26T17:52:05.256Z,76.71
2023-03-26T17:54:48.014Z,77.17
2023-03-26T17:57:14.777Z,77.29
2023-03-26T17:59:44.398Z,76.75
2023-03-26T18:02:18.617Z,76.58
2023-03-26T18:04:49.841Z,77.05
2023-03-26T18:07:17.082Z,76.97
2023-03-26T18:10:12.978Z,77.79
2023-03-26T18:12:42.907Z,77.50
2023-03-26T18:15:43.776Z,77.71
2023-03-26T18:18:11.921Z,77.10
2023-03-26T18:20:42.531Z,77.54
2023-03-26T18:23:12.373Z,77.25
2023-03-26T18:25:41.047Z,76.77
2023-03-26T18:28:07.808Z,76.90
2023-03-26T18:30:47.279Z,77.67
2023-03-26T18:33:15.723Z,77.92
2023-03-26T18:35:51.869Z,76.95
2023-03-26T18:38:35.427Z,77.43
2023-03-26T18:41:05.988Z,77.94
2023-03-26T18:43:35.588Z,77.97
2023-03-26T18:46:13.612Z,78.65
2023-03-26T18:48:40.817Z,77.55
2023-03-26T18:51:11.605Z,77.77
2023-03-26T18:54:00.669Z,78.35
2023-03-26T18:56:35.619Z,78.12
2023-03-26T18:59:31.845Z,77.99
2023-03-26T19:02:07.761Z,78.55
2023-03-26T19:04:36.133Z,78.55
2023-03-26T19:07:08.702Z,78.86
2023-03-26T19:09:38.508Z,79.93
2023-03-26T19:12:38.922Z,80.26
2023-03-26T19:15:16.292Z,79.69
2023-03-26T19:17:48.727Z,80.44
2023-03-26T19:20:20.161Z,80.19
2023-03-26T19:22:48.491Z,79.46
2023-03-26T19:25:25.133Z,82.00
2023-03-26T19:27:52.660Z,81.04
2023-03-26T19:30:33.996Z,79.87
2023-03-26T19:33:13.704Z,80.13
2023-03-26T19:35:44.107Z,79.95
2023-03-26T19:38:20.483Z,80.66
2023-03-26T19:40:47.861Z,80.17
2023-03-26T19:43:15.217Z,79.85
2023-03-26T19:46:00.068Z,80.23
2023-03-26T19:48:45.774Z,81.13
2023-03-26T19:51:31.558Z,80.78
2023-03-26T19:54:00.933Z,79.61
2023-03-26T19:56:28.715Z,80.66
2023-03-26T19:58:56.735Z,80.09
2023-03-26T20:01:30.064Z,80.64
2023-03-26T20:04:00.381Z,80.31
2023-03-26T20:06:42.278Z,80.30
2023-03-26T20:09:14.086Z,80.22
2023-03-26T20:11:41.539Z,80.48
2023-03-26T20:14:14.483Z,80.71
2023-03-26T20:16:44.284Z,80.16
2023-03-26T20:19:14.093Z,80.23
2023-03-26T20:21:41.538Z,81.65
2023-03-26T20:24:17.624Z,79.99
2023-03-26T20:26:46.131Z,79.74
2023-03-26T20:29:14.063Z,80.11
2023-03-26T20:31:42.370Z,81.29
2023-03-26T20:34:22.090Z,80.89
2023-03-26T20:36:55.452Z,81.61
2023-03-26T20:39:23.584Z,80.34
2023-03-26T20:41:51.352Z,80.47
2023-03-26T20:44:20.955Z,80.58
2023-03-26T20:46:49.711Z,80.03
2023-03-26T20:49:18.201Z,80.94
2023-03-26T20:51:46.663Z,80.20
2023-03-26T20:54:25.249Z,80.00
2023-03-26T20:56:53.553Z,80.94
2023-03-26T20:59:26.845Z,80.70
2023-03-26T21:01:56.678Z,80.64
2023-03-26T21:04:25.110Z,80.74
2023-03-26T21:06:55.120Z,80.13
2023-03-26T21:09:25.287Z,80.38
2023-03-26T21:12:30.258Z,80.48
2023-03-26T21:14:57.467Z,81.45
2023-03-26T21:17:24.566Z,80.00
2023-03-26T21:19:51.973Z,80.51
2023-03-26T21:22:38.838Z,79.88
2023-03-26T21:25:33.573Z,79.17
2023-03-26T21:28:31.931Z,80.01
2023-03-26T21:31:07.810Z,80.38
2023-03-26T21:33:34.540Z,79.70
2023-03-26T21:36:02.038Z,79.90
2023-03-26T21:38:32.331Z,79.74
2023-03-26T21:41:01.406Z,80.07
2023-03-26T21:43:28.470Z,79.72
2023-03-26T21:45:55.537Z,79.53
2023-03-26T21:48:22.576Z,79.39
2023-03-26T21:50:49.983Z,79.28
2023-03-26T21:53:17.040Z,79.15
2023-03-26T21:55:55.868Z,79.54
2023-03-26T21:58:39.384Z,79.42
2023-03-26T22:01:30.367Z,79.23
2023-03-26T22:04:16.758Z,79.75
2023-03-26T22:06:53.894Z,79.88
2023-03-26T22:09:33.703Z,79.35
2023-03-26T22:12:03.505Z,79.42
2023-03-26T22:14:30.300Z,79.59
2023-03-26T22:16:57.276Z,79.17
2023-03-26T22:19:24.077Z,78.99
2023-03-26T22:21:51.185Z,78.67
2023-03-26T22:24:18.143Z,78.94
2023-03-26T22:26:44.790Z,79.16
2023-03-26T22:29:12.072Z,79.17
2023-03-26T22:31:40.111Z,79.12
2023-03-26T22:34:07.730Z,79.06
2023-03-26T22:36:35.208Z,79.39
2023-03-26T22:39:01.932Z,79.38
2023-03-26T22:41:29.717Z,80.31
2023-03-26T22:43:59.607Z,79.74
2023-03-26T22:46:28.973Z,79.45
2023-03-26T22:48:57.010Z,79.81
2023-03-26T22:51:23.854Z,79.60
2023-03-26T22:53:50.784Z,79.72
2023-03-26T22:56:18.870Z,79.98
2023-03-26T22:58:47.628Z,79.65
2023-03-26T23:01:21.337Z,80.05
2023-03-26T23:03:48.399Z,80.56
2023-03-26T23:06:16.142Z,79.64
2023-03-26T23:08:43.012Z,79.83
2023-03-26T23:11:16.202Z,79.89
2023-03-26T23:13:44.294Z,80.18
2023-03-26T23:16:12.401Z,79.59
2023-03-26T23:18:40.214Z,80.18
2023-03-26T23:21:12.787Z,80.06
2023-03-26T23:23:39.785Z,79.80
2023-03-26T23:26:07.060Z,80.15
2023-03-26T23:28:34.565Z,80.19
2023-03-26T23:31:05.863Z,80.24
2023-03-26T23:33:35.528Z,80.61
2023-03-26T23:36:08.682Z,80.24
2023-03-26T23:38:44.196Z,80.29
2023-03-26T23:41:15.807Z,80.44
2023-03-26T23:43:54.331Z,80.26
2023-03-26T23:46:31.005Z,80.66
2023-03-26T23:49:02.559Z,80.13
2023-03-26T23:51:32.319Z,80.25
2023-03-26T23:53:59.899Z,80.44
2023-03-26T23:56:32.790Z,80.97
2023-03-26T23:58:59.498Z,81.60
